createdAt,value
2023-03-08T00:03:20.511Z,5.60
2023-03-08T00:08:22.080Z,5.63
2023-03-08T00:13:23.607Z,5.66
2023-03-08T00:18:25.080Z,5.69
2023-03-08T00:23:26.815Z,5.91
2023-03-08T00:28:28.781Z,5.78
2023-03-08T00:33:30.889Z,5.92
2023-03-08T00:38:35.117Z,6.17
2023-03-08T00:43:37.086Z,6.19
2023-03-08T00:48:38.829Z,6.11
2023-03-08T00:53:40.412Z,5.97
2023-03-08T00:58:42.586Z,6.04
2023-03-08T01:03:44.867Z,6.11
2023-03-08T01:08:46.437Z,6.21
2023-03-08T01:13:48.896Z,6.23
2023-03-08T01:18:50.912Z,6.13
2023-03-08T01:23:54.400Z,6.16
2023-03-08T01:28:57.742Z,6.24
2023-03-08T01:33:59.331Z,6.33
2023-03-08T01:39:01.278Z,6.35
2023-03-08T01:44:02.978Z,6.47
2023-03-08T01:49:19.693Z,6.60
2023-03-08T01:54:25.792Z,6.38
2023-03-08T01:59:28.292Z,6.33
2023-03-08T02:04:30.375Z,6.28
2023-03-08T02:09:32.417Z,6.41
2023-03-08T02:14:34.744Z,6.43
2023-03-08T02:19:43.767Z,6.50
2023-03-08T02:24:45.431Z,6.42
2023-03-08T02:29:47.455Z,6.35
2023-03-08T02:34:50.218Z,6.47
2023-03-08T02:39:51.736Z,6.35
2023-03-08T02:44:53.405Z,6.21
2023-03-08T02:49:54.964Z,6.12
2023-03-08T02:54:56.544Z,6.19
2023-03-08T03:00:00.060Z,6.27
2023-03-08T03:05:04.847Z,6.25
2023-03-08T03:10:09.738Z,6.24
2023-03-08T03:15:11.941Z,6.10
2023-03-08T03:20:15.812Z,6.03
2023-03-08T03:25:17.428Z,6.06
2023-03-08T03:30:20.981Z,6.14
2023-03-08T03:35:23.088Z,6.02
2023-03-08T03:40:25.220Z,6.00
2023-03-08T03:45:32.049Z,6.03
2023-03-08T03:50:33.638Z,5.88
2023-03-08T03:55:41.911Z,5.88
2023-03-08T04:00:43.639Z,5.93
2023-03-08T04:05:55.203Z,5.89
2023-03-08T04:11:00.414Z,5.84
2023-03-08T04:16:16.638Z,5.58
2023-03-08T04:21:18.676Z,5.56
2023-03-08T04:26:22.413Z,5.67
2023-03-08T04:31:28.163Z,5.72
2023-03-08T04:36:32.534Z,5.81
2023-03-08T04:41:35.124Z,5.81
2023-03-08T04:46:46.246Z,5.85
2023-03-08T04:51:53.906Z,5.86
2023-03-08T04:56:56.693Z,5.93
2023-03-08T05:02:00.195Z,5.99
2023-03-08T05:07:04.709Z,5.99
2023-03-08T05:12:09.707Z,5.91
2023-03-08T05:17:30.913Z,5.78
2023-03-08T05:22:37.138Z,5.79
2023-03-08T05:27:43.012Z,5.74
2023-03-08T05:32:44.697Z,5.74
2023-03-08T05:37:46.328Z,5.73
2023-03-08T05:42:49.070Z,5.71
2023-03-08T05:47:51.167Z,5.83
2023-03-08T05:52:52.772Z,5.85
2023-03-08T05:57:58.573Z,5.85
2023-03-08T06:03:01.472Z,5.75
2023-03-08T06:08:03.577Z,5.79
2023-03-08T06:13:05.135Z,5.73
2023-03-08T06:18:06.655Z,5.60
2023-03-08T06:23:08.592Z,5.59
2023-03-08T06:28:10.209Z,5.64
2023-03-08T06:33:14.514Z,5.83
2023-03-08T06:38:18.299Z,5.82
2023-03-08T06:43:20.821Z,5.74
2023-03-08T06:48:22.857Z,5.73
2023-03-08T06:53:25.939Z,5.79
2023-03-08T06:58:36.881Z,5.92
2023-03-08T07:03:38.500Z,6.11
2023-03-08T07:08:40.888Z,6.07
2023-03-08T07:13:42.427Z,6.02
2023-03-08T07:18:44.242Z,6.07
2023-03-08T07:23:45.763Z,6.23
2023-03-08T07:28:50.714Z,6.35
2023-03-08T07:33:52.197Z,6.49
2023-03-08T07:38:53.856Z,6.53
2023-03-08T07:43:55.312Z,6.58
2023-03-08T07:48:59.002Z,6.66
2023-03-08T07:54:00.567Z,6.70
2023-03-08T07:59:02.051Z,6.81
2023-03-08T08:04:03.583Z,6.89
2023-03-08T08:09:06.051Z,6.98
2023-03-08T08:14:07.849Z,7.01
2023-03-08T08:19:11.194Z,7.01
2023-03-08T08:24:12.726Z,7.01
2023-03-08T08:29:14.223Z,7.09
2023-03-08T08:34:15.737Z,7.20
2023-03-08T08:39:17.344Z,7.26
2023-03-08T08:44:18.930Z,7.32
2023-03-08T08:49:20.554Z,7.36
2023-03-08T08:54:22.103Z,7.59
2023-03-08T08:59:23.679Z,7.69
2023-03-08T09:04:25.328Z,7.72
2023-03-08T09:09:27.023Z,7.86
2023-03-08T09:14:28.520Z,8.04
2023-03-08T09:19:29.984Z,8.17
2023-03-08T09:24:31.567Z,8.34
2023-03-08T09:29:33.454Z,8.53
2023-03-08T09:34:35.138Z,8.53
2023-03-08T09:39:36.665Z,8.56
2023-03-08T09:45:01.248Z,8.57
2023-03-08T09:50:11.946Z,8.54
2023-03-08T09:55:25.616Z,8.66
2023-03-08T10:00:34.448Z,8.70
2023-03-08T10:06:02.870Z,8.76
2023-03-08T10:11:13.102Z,8.83
2023-03-08T10:16:35.557Z,8.99
2023-03-08T10:21:40.556Z,9.11
2023-03-08T10:26:43.712Z,9.14
2023-03-08T10:31:45.418Z,9.25
2023-03-08T10:36:53.152Z,9.21
2023-03-08T10:41:58.683Z,9.26
2023-03-08T10:47:03.934Z,9.21
2023-03-08T10:52:05.522Z,8.96
2023-03-08T10:57:18.932Z,8.96
2023-03-08T11:02:20.637Z,8.89
2023-03-08T11:07:31.749Z,8.81
2023-03-08T11:12:33.307Z,8.91
2023-03-08T11:17:38.442Z,9.35
2023-03-08T11:23:00.508Z,9.50
2023-03-08T11:28:14.104Z,9.73
2023-03-08T11:33:24.512Z,9.88
2023-03-08T11:38:32.042Z,9.98
2023-03-08T11:44:01.142Z,10.11
2023-03-08T11:49:25.815Z,9.87
2023-03-08T11:54:33.287Z,9.55
2023-03-08T11:59:42.122Z,9.45
2023-03-08T12:05:00.859Z,9.39
2023-03-08T12:10:42.097Z,9.28
2023-03-08T12:15:47.091Z,9.48
2023-03-08T12:20:50.146Z,9.65
2023-03-08T12:26:02.480Z,9.69
2023-03-08T12:31:28.455Z,10.12
2023-03-08T12:36:42.905Z,10.51
2023-03-08T12:41:44.657Z,10.59
2023-03-08T12:47:03.489Z,10.63
2023-03-08T12:52:07.537Z,10.60
2023-03-08T12:57:23.614Z,10.57
2023-03-08T13:02:27.177Z,10.50
2023-03-08T13:07:36.011Z,10.57
2023-03-08T13:13:13.824Z,10.66
2023-03-08T13:18:23.684Z,10.88
2023-03-08T13:23:32.367Z,11.01
2023-03-08T13:28:46.744Z,11.12
2023-03-08T13:33:58.071Z,11.22
2023-03-08T13:39:05.605Z,11.18
2023-03-08T13:44:24.589Z,11.29
2023-03-08T13:49:34.379Z,11.41
2023-03-08T13:54:38.446Z,11.43
2023-03-08T13:59:48.565Z,11.51
2023-03-08T14:04:50.937Z,11.46
2023-03-08T14:09:52.508Z,11.79
2023-03-08T14:15:01.265Z,11.84
2023-03-08T14:20:16.157Z,11.87
2023-03-08T14:25:32.038Z,12.09
2023-03-08T14:30:33.569Z,11.82
2023-03-08T14:35:44.889Z,11.91
2023-03-08T14:40:50.065Z,11.88
2023-03-08T14:46:05.229Z,11.97
2023-03-08T14:51:26.775Z,11.91
2023-03-08T14:56:30.180Z,11.84
2023-03-08T15:01:34.428Z,11.86
2023-03-08T15:06:39.226Z,11.96
2023-03-08T15:11:40.840Z,12.09
2023-03-08T15:16:42.402Z,12.25
2023-03-08T15:21:44.087Z,12.25
2023-03-08T15:26:46.177Z,12.33
2023-03-08T15:31:47.647Z,12.42
2023-03-08T15:36:50.342Z,12.29
2023-03-08T15:41:51.832Z,12.26
2023-03-08T15:46:53.283Z,12.14
2023-03-08T15:51:54.790Z,12.14
2023-03-08T15:56:56.247Z,12.01
2023-03-08T16:01:57.822Z,11.96
2023-03-08T16:06:59.401Z,12.01
2023-03-08T16:12:00.920Z,11.98
2023-03-08T16:17:03.848Z,11.77
2023-03-08T16:22:05.605Z,11.76
2023-03-08T16:27:07.076Z,11.71
2023-03-08T16:32:13.246Z,11.51
2023-03-08T16:37:14.772Z,11.56
2023-03-08T16:42:17.628Z,11.47
2023-03-08T16:47:20.527Z,11.47
2023-03-08T16:52:22.092Z,11.39
2023-03-08T16:57:23.914Z,11.33
2023-03-08T17:02:25.545Z,11.16
2023-03-08T17:07:27.135Z,11.13
2023-03-08T17:12:28.625Z,11.16
2023-03-08T17:17:30.506Z,11.11
2023-03-08T17:22:32.139Z,11.01
2023-03-08T17:27:33.583Z,11.03
2023-03-08T17:32:35.077Z,10.79
2023-03-08T17:37:36.518Z,10.66
2023-03-08T17:42:38.340Z,10.94
2023-03-08T17:47:39.958Z,11.06
2023-03-08T17:52:42.012Z,10.85
2023-03-08T17:57:43.503Z,10.75
2023-03-08T18:02:45.969Z,10.62
2023-03-08T18:07:47.463Z,10.50
2023-03-08T18:12:48.975Z,10.69
2023-03-08T18:17:50.448Z,10.66
2023-03-08T18:22:52.595Z,10.64
2023-03-08T18:27:54.104Z,10.55
2023-03-08T18:32:55.621Z,10.62
2023-03-08T18:37:57.154Z,10.68
2023-03-08T18:42:58.672Z,10.59
2023-03-08T18:48:00.206Z,10.80
2023-03-08T18:53:01.907Z,10.83
2023-03-08T18:58:03.498Z,10.89
2023-03-08T19:03:04.940Z,10.94
2023-03-08T19:08:06.635Z,11.18
2023-03-08T19:13:08.130Z,11.46
2023-03-08T19:18:10.394Z,11.71
2023-03-08T19:23:11.840Z,11.88
2023-03-08T19:28:13.286Z,12.18
2023-03-08T19:33:29.776Z,12.20
2023-03-08T19:38:32.344Z,12.37
2023-03-08T19:43:33.886Z,12.32
2023-03-08T19:48:36.626Z,12.32
2023-03-08T19:53:38.170Z,12.44
2023-03-08T19:58:39.632Z,12.40
2023-03-08T20:03:41.238Z,12.54
2023-03-08T20:08:42.746Z,12.64
2023-03-08T20:13:44.207Z,12.63
2023-03-08T20:18:46.336Z,12.75
2023-03-08T20:23:48.720Z,12.68
2023-03-08T20:28:51.323Z,12.71
2023-03-08T20:33:52.831Z,12.74
2023-03-08T20:38:54.408Z,12.89
2023-03-08T20:43:55.981Z,12.87
2023-03-08T20:48:57.452Z,13.19
2023-03-08T20:53:58.952Z,13.05
2023-03-08T20:59:00.666Z,13.03
2023-03-08T21:04:02.226Z,13.01
2023-03-08T21:09:03.780Z,13.02
2023-03-08T21:14:05.429Z,13.13
2023-03-08T21:19:07.222Z,13.26
2023-03-08T21:24:16.244Z,13.15
2023-03-08T21:29:19.709Z,13.12
2023-03-08T21:34:21.548Z,13.08
2023-03-08T21:39:23.091Z,13.12
2023-03-08T21:44:25.130Z,13.29
2023-03-08T21:49:28.818Z,13.39
2023-03-08T21:54:31.416Z,13.43
2023-03-08T21:59:32.885Z,13.38
2023-03-08T22:04:34.431Z,13.26
2023-03-08T22:09:35.933Z,13.16
2023-03-08T22:14:37.468Z,12.89
2023-03-08T22:19:38.981Z,12.87
2023-03-08T22:24:40.455Z,12.81
2023-03-08T22:29:42.048Z,12.83
2023-03-08T22:34:43.562Z,12.61
2023-03-08T22:39:45.195Z,12.41
2023-03-08T22:44:46.674Z,12.57
2023-03-08T22:49:50.214Z,12.52
2023-03-08T22:54:51.745Z,12.50
2023-03-08T22:59:57.950Z,12.42
2023-03-08T23:04:59.425Z,12.46
2023-03-08T23:10:00.878Z,12.37
2023-03-08T23:15:02.761Z,12.35
2023-03-08T23:20:04.597Z,12.52
2023-03-08T23:25:06.715Z,12.52
2023-03-08T23:30:09.626Z,12.36
2023-03-08T23:35:12.486Z,12.36
2023-03-08T23:40:14.663Z,12.37
2023-03-08T23:45:16.207Z,12.58
2023-03-08T23:50:17.757Z,12.18
2023-03-08T23:55:19.229Z,12.40
